Skip Navigation Links
NOAA logo - Click to go to the NOAA homepage
NOAA's National Weather Service
Alaska Aviation Weather Unit
  NWS logo - Click to go to the NWS homepage
Left Navbar Graphic     02 AKDT = 10 GMT

   
NOAA is celebrating 200 years of science, service, and stewardship. Visit the NOAA 200th celebration Web site to learn more.
USA.gov is the U.S. Government's official Web portal to all Federal, state and local government Web resources and services.
Facebook
NWS on Facebook

Important Change Regarding the AAWU Web Presence

 

Over the last several months, the AAWU has been working to navigate its webpages to a nationally supported server. Security, as well as other needs, have necessitated the change.  In the process, we have made an effort to enhance the functionality of our website, as well as some of our products. As of June 27, 2017, aawu.arh.noaa.gov will be discontinued. The new AAWU web address is weather.gov/aawu. It is now live and will run in-parallel with the old site until it is discontinued. Please send any feedback or questions regarding the new webpages to nws.ar.aawu.webauthors@noaa.gov.  Thank you for your patience during this time of transition.
AAWU Home :: Display TAF Add Bookmark
METAR PAPB 250453Z AUTO 14022G28KT 3SM RA BR BKN006 OVC015 08/08 A2981
     RMK AO2 PK WND 15028/0421 SLP081 P0007 T00830078 TSNO=

SPECI PAPB 250528Z AUTO 14022G29KT 2 1/2SM -RA BR BKN006 OVC011 08/08
     A2979 RMK AO2 PK WND 14030/0516 P0004 T00830078 TSNO=

SPECI PAPB 250551Z AUTO 15023G29KT 3SM -RA BR OVC005 08/08 A2978 RMK AO2
     PK WND 15030/0538 P0005 TSNO=

METAR PAPB 250553Z AUTO 14022G29KT 3SM -RA BR OVC005 08/08 A2979 RMK AO2
     PK WND 15030/0538 SLP074 P0005 60023 T00830078 10094 20083
     55016 TSNO=

PAPB 250600Z AUTO 14020G29KT 2SM -RA BR OVC005 08/08 A2978 RMK AO2
     PK WND 14029/0554 P0001 T00830078 TSNO=

SPECI PAPB 250616Z AUTO 14020G26KT 1 3/4SM -RA BR OVC007 08/08 A2978 RMK
     AO2 PK WND 14029/0554 P0002 T00830078 TSNO=

PAPB 250624Z AUTO 14019G26KT 2 1/2SM -RA BR OVC006 08/08 A2978 RMK
     AO2 PK WND 14029/0554 P0002 T00830078 TSNO=

SPECI PAPB 250631Z AUTO 14020G26KT 4SM -RA BR OVC006 08/08 A2978 RMK AO2
     PK WND 14029/0554 P0003 T00830078 TSNO=

METAR PAPB 250753Z AUTO 14022G30KT 5SM -RA BR OVC007 08/08 A2975 RMK AO2
     PK WND 14030/0750 CIG 005V010 SLP060 P0004 T00830078 TSNO=

METAR PAPB 250853Z AUTO 14026G33KT 6SM -RA BR OVC009 08/08 A2972 RMK PK
     WND 13033/0850 SLP052 P0004 60013 T00830078 400940078 58021
     TSNO VIA AUTODIAL=

METAR PAPB 250953Z AUTO 14022G29KT 6SM RA BR BKN007 OVC010 08/07
 A2971 RMK AO2 PK WND 14030/0928 CIG 005V009 SLP047 P0004
 T00830072 TSNO=


NOAA's National Weather Service
Alaska Aviation Weather Unit
6930 Sand Lake Road
Anchorage, AK 99502-1845
Disclaimer
Credits
Glossary
Privacy Policy
About Us
Career Opportunities
Contact AAWU Internet Services Site last modified: April, 17th 2012